Time;durP1;ratioP1;P1;durP2;ratioP2;P2;SDS_P1;SDS_P2;PMS_P1;PMS_P2;Temp;Humidity;BMP_temperature;BMP_pressure;BME280_temperature;BME280_humidity;BME280_pressure;Samples;Min_cycle;Max_cycle;Signal;HPM_P1;HPM_P2
2021/06/30 00:01:00;;;;;;;3.70;2.60;;;19.10;99.90;;;;;;5065320;28;20589;-60
2021/06/30 00:03:26;;;;;;;2.53;2.20;;;19.20;99.90;;;;;;5064282;28;20600;-62
2021/06/30 00:05:52;;;;;;;5.90;2.50;;;19.00;99.90;;;;;;5060646;28;20266;-62
2021/06/30 00:08:18;;;;;;;4.00;2.40;;;19.00;99.90;;;;;;5065465;28;20448;-63
2021/06/30 00:10:43;;;;;;;4.27;2.77;;;18.90;99.90;;;;;;5062827;28;20482;-62
2021/06/30 00:13:10;;;;;;;4.87;2.97;;;18.90;99.90;;;;;;5063649;28;20194;-61
2021/06/30 00:15:37;;;;;;;4.27;2.30;;;18.90;99.90;;;;;;5045766;28;20187;-62
2021/06/30 00:18:04;;;;;;;4.13;2.57;;;18.80;99.90;;;;;;5060666;28;20440;-62
2021/06/30 00:20:34;;;;;;;2.63;2.43;;;18.80;99.90;;;;;;5065536;28;20472;-59
2021/06/30 00:23:00;;;;;;;4.70;2.30;;;18.70;99.90;;;;;;5066937;22;20498;-63
2021/06/30 00:25:25;;;;;;;3.90;2.80;;;18.80;99.90;;;;;;5002945;28;20958;-62
2021/06/30 00:27:54;;;;;;;3.70;2.20;;;18.70;99.90;;;;;;5006699;28;20190;-61
2021/06/30 00:30:20;;;;;;;8.90;3.07;;;18.60;99.90;;;;;;5003182;28;20217;-62
2021/06/30 00:32:46;;;;;;;2.70;2.50;;;18.70;99.90;;;;;;5005384;28;20471;-62
2021/06/30 00:35:14;;;;;;;4.00;2.77;;;18.60;99.90;;;;;;4989630;28;20929;-62
2021/06/30 00:37:39;;;;;;;3.43;2.40;;;18.50;99.90;;;;;;4987879;28;20255;-61
2021/06/30 00:40:10;;;;;;;2.10;2.00;;;18.50;99.90;;;;;;5005827;28;21179;-59
2021/06/30 00:42:36;;;;;;;2.10;1.90;;;18.50;99.90;;;;;;5004300;28;20193;-61
2021/06/30 00:45:04;;;;;;;2.83;2.00;;;18.40;99.90;;;;;;5001298;28;20530;-60
2021/06/30 00:47:30;;;;;;;2.13;1.93;;;18.30;99.90;;;;;;5006417;28;20729;-61
2021/06/30 00:49:57;;;;;;;2.73;2.00;;;18.30;99.90;;;;;;5003155;28;20866;-61
2021/06/30 00:52:23;;;;;;;2.43;2.23;;;18.20;99.90;;;;;;5010422;28;20193;-61
2021/06/30 00:54:48;;;;;;;2.73;1.70;;;18.10;99.90;;;;;;5007599;28;20549;-61
2021/06/30 00:57:17;;;;;;;2.03;1.83;;;18.10;99.90;;;;;;5009053;28;20657;-61
2021/06/30 00:59:43;;;;;;;2.30;2.10;;;18.10;99.90;;;;;;5008246;28;20189;-61
2021/06/30 01:02:09;;;;;;;1.80;1.70;;;18.10;99.90;;;;;;5012518;28;21227;-62
2021/06/30 01:04:34;;;;;;;2.73;1.80;;;18.20;99.90;;;;;;5006663;28;20618;-62
2021/06/30 01:07:00;;;;;;;3.63;1.87;;;18.10;99.90;;;;;;4990823;28;20189;-63
2021/06/30 01:09:26;;;;;;;2.47;1.60;;;18.10;99.90;;;;;;5008779;28;20180;-61
2021/06/30 01:11:52;;;;;;;3.13;1.83;;;18.10;99.90;;;;;;5009468;28;21089;-61
2021/06/30 01:14:31;;;;;;;2.97;1.80;;;18.10;99.90;;;;;;5013483;28;20264;-61
2021/06/30 01:16:58;;;;;;;2.23;1.70;;;18.10;99.90;;;;;;4992132;28;20271;-60
2021/06/30 01:19:24;;;;;;;1.70;1.50;;;18.20;99.90;;;;;;5004835;28;20478;-62
2021/06/30 01:21:52;;;;;;;3.17;1.90;;;18.10;99.90;;;;;;5012519;28;20839;-62
2021/06/30 01:24:18;;;;;;;3.97;1.70;;;18.20;99.90;;;;;;4993103;28;20456;-63
2021/06/30 01:26:45;;;;;;;1.73;1.37;;;18.20;99.90;;;;;;5005062;28;21019;-62
2021/06/30 01:29:11;;;;;;;1.70;1.60;;;18.20;99.90;;;;;;5009412;28;20479;-62
2021/06/30 01:31:37;;;;;;;1.73;1.63;;;18.30;99.90;;;;;;4989107;28;20956;-62
2021/06/30 01:34:03;;;;;;;1.50;1.40;;;18.20;99.90;;;;;;5010022;28;20275;-59
2021/06/30 01:36:29;;;;;;;1.80;1.70;;;18.20;99.90;;;;;;5016355;28;20190;-62
2021/06/30 01:38:55;;;;;;;3.20;1.60;;;18.10;99.90;;;;;;5008923;28;20440;-59
2021/06/30 01:41:21;;;;;;;4.87;1.83;;;18.00;99.90;;;;;;5011011;28;20482;-62
2021/06/30 01:43:47;;;;;;;2.27;1.50;;;18.00;99.90;;;;;;5006777;28;20502;-62
2021/06/30 01:46:13;;;;;;;1.83;1.73;;;18.00;99.90;;;;;;5007712;28;20203;-60
2021/06/30 01:48:46;;;;;;;1.70;1.40;;;18.00;99.90;;;;;;4994540;28;20467;-62
2021/06/30 01:51:12;;;;;;;1.93;1.30;;;18.00;99.90;;;;;;5002925;28;20439;-62
2021/06/30 01:53:38;;;;;;;5.53;1.80;;;18.00;99.90;;;;;;5009742;28;20467;-60
2021/06/30 01:56:04;;;;;;;2.47;1.60;;;17.90;99.90;;;;;;4995483;28;20192;-62
2021/06/30 01:58:29;;;;;;;6.27;1.50;;;17.80;99.90;;;;;;5007445;28;20661;-63
2021/06/30 02:00:56;;;;;;;2.00;1.30;;;17.80;99.90;;;;;;5006188;28;20227;-64
2021/06/30 02:03:22;;;;;;;4.80;2.10;;;17.80;99.90;;;;;;5003813;28;20212;-58
2021/06/30 02:05:48;;;;;;;2.07;1.40;;;17.80;99.90;;;;;;5007974;28;20432;-62
2021/06/30 02:08:14;;;;;;;1.63;1.47;;;17.80;99.90;;;;;;5008273;28;20440;-63
2021/06/30 02:10:40;;;;;;;3.57;1.80;;;17.80;99.90;;;;;;5004070;28;20185;-62
2021/06/30 02:13:06;;;;;;;5.60;1.50;;;17.80;99.90;;;;;;5005954;28;20432;-62
2021/06/30 02:15:33;;;;;;;2.07;1.57;;;17.70;99.90;;;;;;5007295;28;20577;-61
2021/06/30 02:18:00;;;;;;;3.10;1.60;;;17.70;99.90;;;;;;5005542;28;20195;-61
2021/06/30 02:20:27;;;;;;;1.60;1.43;;;17.50;99.90;;;;;;5005905;28;20460;-63
2021/06/30 02:22:54;;;;;;;5.03;2.50;;;17.50;99.90;;;;;;5004168;28;20432;-64
2021/06/30 02:25:24;;;;;;;1.50;1.40;;;17.60;99.90;;;;;;5003568;28;20877;-63
2021/06/30 02:27:51;;;;;;;3.73;1.47;;;17.50;99.90;;;;;;5006992;28;20959;-63
2021/06/30 02:30:27;;;;;;;2.20;1.53;;;17.40;99.90;;;;;;4986794;28;20447;-62
2021/06/30 02:32:53;;;;;;;1.60;1.33;;;17.30;99.90;;;;;;5006364;28;20479;-62
2021/06/30 02:35:21;;;;;;;1.60;1.50;;;17.20;99.90;;;;;;5009259;28;20479;-62
2021/06/30 02:37:49;;;;;;;1.70;1.50;;;17.10;99.90;;;;;;5003581;28;20531;-63
2021/06/30 02:40:16;;;;;;;3.00;1.60;;;17.20;99.90;;;;;;5005685;28;20475;-64
2021/06/30 02:42:43;;;;;;;1.97;1.77;;;17.10;99.90;;;;;;5007061;28;20519;-62
2021/06/30 02:45:12;;;;;;;1.53;1.43;;;17.10;99.90;;;;;;5001820;28;20463;-61
2021/06/30 02:47:39;;;;;;;1.87;1.37;;;17.10;99.90;;;;;;5005734;28;20475;-62
2021/06/30 02:50:06;;;;;;;3.00;1.50;;;17.00;99.90;;;;;;5003963;28;20428;-62
2021/06/30 02:52:32;;;;;;;1.87;1.77;;;16.90;99.90;;;;;;4991115;28;20458;-60
2021/06/30 02:54:58;;;;;;;1.60;1.30;;;16.90;99.90;;;;;;5008019;28;20966;-61
2021/06/30 02:57:24;;;;;;;2.07;1.30;;;16.90;99.90;;;;;;5003712;28;20433;-61
2021/06/30 02:59:49;;;;;;;1.70;1.60;;;16.90;99.90;;;;;;5003599;28;20196;-63
2021/06/30 03:02:15;;;;;;;3.07;1.50;;;16.80;99.90;;;;;;5005786;28;20443;-62
2021/06/30 03:04:40;;;;;;;4.10;1.50;;;16.80;99.90;;;;;;5005165;28;20240;-62
2021/06/30 03:07:06;;;;;;;2.53;1.50;;;16.80;99.90;;;;;;5004937;28;20197;-64
2021/06/30 03:09:32;;;;;;;1.40;1.30;;;16.70;99.90;;;;;;5005431;28;20193;-62
2021/06/30 03:11:57;;;;;;;3.37;1.83;;;16.70;99.90;;;;;;5005585;28;20189;-62
2021/06/30 03:14:23;;;;;;;1.80;1.50;;;16.60;99.90;;;;;;5006382;28;20193;-62
2021/06/30 03:16:49;;;;;;;1.50;1.30;;;16.60;99.90;;;;;;5005409;28;20294;-61
2021/06/30 03:19:15;;;;;;;2.37;1.40;;;16.50;99.90;;;;;;5003478;28;20197;-62
2021/06/30 03:21:41;;;;;;;2.07;1.40;;;16.60;99.90;;;;;;5006188;28;20212;-62
2021/06/30 03:24:08;;;;;;;1.70;1.40;;;16.60;99.90;;;;;;5024150;28;20826;-61
2021/06/30 03:26:34;;;;;;;5.40;1.47;;;16.50;99.90;;;;;;5028180;28;20450;-61
2021/06/30 03:29:01;;;;;;;1.60;1.50;;;16.50;99.90;;;;;;5025967;28;20447;-62
2021/06/30 03:31:27;;;;;;;2.90;1.30;;;16.50;99.90;;;;;;5026628;28;20252;-62
2021/06/30 03:33:53;;;;;;;1.70;1.60;;;16.50;99.90;;;;;;5031760;28;20434;-62
2021/06/30 03:36:18;;;;;;;1.50;1.40;;;16.40;99.90;;;;;;5023353;28;20708;-62
2021/06/30 03:38:44;;;;;;;1.30;1.20;;;16.40;99.90;;;;;;5029499;28;20279;-61
2021/06/30 03:41:09;;;;;;;1.77;1.50;;;16.30;99.90;;;;;;5026719;28;20247;-63
2021/06/30 03:43:35;;;;;;;1.77;1.63;;;16.20;99.90;;;;;;5025465;28;20208;-63
2021/06/30 03:46:01;;;;;;;2.07;1.20;;;16.20;99.90;;;;;;5033290;28;20696;-59
2021/06/30 03:48:27;;;;;;;1.40;1.30;;;16.30;99.90;;;;;;5027851;28;20250;-61
2021/06/30 03:50:53;;;;;;;1.50;1.30;;;16.30;99.90;;;;;;5013662;28;20213;-61
2021/06/30 03:53:18;;;;;;;1.20;1.10;;;16.20;99.90;;;;;;5024488;28;20436;-62
2021/06/30 03:55:44;;;;;;;1.30;1.20;;;16.30;99.90;;;;;;5026797;28;20769;-62
2021/06/30 03:58:10;;;;;;;1.40;1.30;;;16.30;99.90;;;;;;5027398;28;20188;-61
2021/06/30 04:00:35;;;;;;;2.07;1.30;;;16.30;99.90;;;;;;5026429;28;20220;-63
2021/06/30 04:03:01;;;;;;;1.47;1.20;;;16.30;99.90;;;;;;5024951;28;20621;-61
2021/06/30 04:05:27;;;;;;;1.50;1.40;;;16.30;99.90;;;;;;5025411;28;20196;-62
2021/06/30 04:07:53;;;;;;;1.50;1.40;;;16.30;99.90;;;;;;5025373;28;20435;-63
2021/06/30 04:10:19;;;;;;;3.30;1.30;;;16.30;99.90;;;;;;5024950;28;20196;-61
2021/06/30 04:12:45;;;;;;;3.03;1.60;;;16.30;99.90;;;;;;5026599;28;20245;-62
2021/06/30 04:15:11;;;;;;;1.50;1.40;;;16.30;99.90;;;;;;5025782;28;20501;-62
2021/06/30 04:17:37;;;;;;;1.70;1.40;;;16.30;99.90;;;;;;5025449;28;20192;-62
2021/06/30 04:20:08;;;;;;;1.43;1.33;;;16.40;99.90;;;;;;5031088;28;20482;-57
2021/06/30 04:22:37;;;;;;;1.40;1.30;;;16.40;99.90;;;;;;5015032;28;20487;-60
2021/06/30 04:25:06;;;;;;;1.97;1.40;;;16.40;99.90;;;;;;5003349;28;20471;-63
2021/06/30 04:27:33;;;;;;;1.37;1.27;;;16.40;99.90;;;;;;5009110;28;20498;-62
2021/06/30 04:30:00;;;;;;;1.47;1.30;;;16.30;99.90;;;;;;5009178;28;20436;-62
2021/06/30 04:32:25;;;;;;;1.70;1.40;;;16.30;99.90;;;;;;5005407;28;20951;-62
2021/06/30 04:34:51;;;;;;;2.23;1.40;;;16.30;99.90;;;;;;5007573;28;20458;-62
2021/06/30 04:37:17;;;;;;;1.63;1.33;;;16.30;99.90;;;;;;5004476;28;20185;-63
2021/06/30 04:39:42;;;;;;;1.57;1.47;;;16.30;99.90;;;;;;5008501;28;20246;-63
2021/06/30 04:42:08;;;;;;;2.13;1.70;;;16.40;99.90;;;;;;5008264;28;20267;-62
2021/06/30 04:44:36;;;;;;;1.30;1.20;;;16.40;99.90;;;;;;5005919;28;20779;-61
2021/06/30 04:47:06;;;;;;;1.40;1.30;;;16.50;99.90;;;;;;5008810;28;20205;-61
2021/06/30 04:49:31;;;;;;;1.67;1.57;;;16.50;99.90;;;;;;4992716;28;20440;-63
2021/06/30 04:51:57;;;;;;;1.47;1.20;;;16.50;99.90;;;;;;5009860;28;20447;-62
2021/06/30 04:54:23;;;;;;;1.30;1.20;;;16.60;99.90;;;;;;5010650;28;20229;-62
2021/06/30 04:56:49;;;;;;;1.30;1.20;;;16.60;99.90;;;;;;5007951;28;20289;-61
2021/06/30 04:59:15;;;;;;;1.67;1.37;;;16.60;99.90;;;;;;5009542;28;20193;-61
2021/06/30 05:01:40;;;;;;;3.10;1.50;;;16.60;99.90;;;;;;5009415;28;20466;-62
2021/06/30 05:04:06;;;;;;;1.53;1.43;;;16.60;99.90;;;;;;5004650;28;20284;-62
2021/06/30 05:06:34;;;;;;;1.30;1.20;;;16.50;99.90;;;;;;4991980;28;20181;-62
2021/06/30 05:08:59;;;;;;;1.77;1.67;;;16.60;99.90;;;;;;5007016;28;20714;-62
2021/06/30 05:11:25;;;;;;;1.77;1.20;;;16.60;99.90;;;;;;5005533;28;20543;-64
2021/06/30 05:13:50;;;;;;;1.87;1.23;;;16.70;99.90;;;;;;5008994;28;20260;-59
2021/06/30 05:16:16;;;;;;;2.03;1.40;;;16.70;99.90;;;;;;5004913;28;20287;-62
2021/06/30 05:18:43;;;;;;;1.67;1.40;;;16.70;99.90;;;;;;5007782;28;20196;-62
2021/06/30 05:21:09;;;;;;;1.80;1.50;;;16.80;99.90;;;;;;4988387;28;20216;-60
2021/06/30 05:23:35;;;;;;;2.10;1.50;;;16.70;99.90;;;;;;5007013;28;20834;-61
2021/06/30 05:26:02;;;;;;;1.87;1.30;;;16.60;99.90;;;;;;5008377;28;20431;-61
2021/06/30 05:28:28;;;;;;;1.37;1.27;;;16.60;99.90;;;;;;5003701;28;20186;-60
2021/06/30 05:30:53;;;;;;;5.93;1.40;;;16.60;99.90;;;;;;5006792;28;20963;-61
2021/06/30 05:33:19;;;;;;;1.83;1.60;;;16.60;99.90;;;;;;5008309;28;20196;-62
2021/06/30 05:35:45;;;;;;;1.53;1.43;;;16.70;99.90;;;;;;4985145;28;20194;-61
2021/06/30 05:38:21;;;;;;;1.40;1.30;;;16.70;99.90;;;;;;5002475;28;20551;-61
2021/06/30 05:40:47;;;;;;;1.70;1.60;;;16.70;99.90;;;;;;4972149;28;20206;-62
2021/06/30 05:43:12;;;;;;;1.50;1.33;;;16.70;99.90;;;;;;4983021;28;20449;-61
2021/06/30 05:45:38;;;;;;;1.50;1.40;;;16.80;99.90;;;;;;4986016;28;20301;-62
2021/06/30 05:48:07;;;;;;;1.73;1.50;;;16.90;99.90;;;;;;4988213;28;20421;-61
2021/06/30 05:50:33;;;;;;;3.73;1.53;;;16.80;99.90;;;;;;4985658;28;20543;-61
2021/06/30 05:52:59;;;;;;;1.40;1.30;;;16.80;99.90;;;;;;4987441;28;20433;-61
2021/06/30 05:55:25;;;;;;;3.40;1.53;;;16.90;99.90;;;;;;4985905;28;20445;-61
2021/06/30 05:57:51;;;;;;;1.80;1.40;;;16.90;99.90;;;;;;4986476;28;20296;-63
2021/06/30 06:00:19;;;;;;;4.30;1.60;;;16.90;99.90;;;;;;4986044;28;20221;-61
2021/06/30 06:02:46;;;;;;;1.97;1.50;;;17.00;99.90;;;;;;4984945;28;20846;-61
2021/06/30 06:05:12;;;;;;;2.20;1.60;;;17.10;99.90;;;;;;4986329;28;20461;-60
2021/06/30 06:07:40;;;;;;;1.80;1.70;;;17.20;99.90;;;;;;4986005;28;20444;-59
2021/06/30 06:10:07;;;;;;;1.57;1.40;;;17.20;99.90;;;;;;4986206;28;20273;-61
2021/06/30 06:12:33;;;;;;;1.97;1.50;;;17.20;99.90;;;;;;4990312;28;21265;-62
2021/06/30 06:14:58;;;;;;;1.90;1.57;;;17.30;99.90;;;;;;4973935;28;20506;-62
2021/06/30 06:17:24;;;;;;;2.70;1.60;;;17.30;99.90;;;;;;4971153;28;20280;-61
2021/06/30 06:19:50;;;;;;;2.00;1.50;;;17.40;99.90;;;;;;4982676;28;20602;-61
2021/06/30 06:22:16;;;;;;;1.53;1.43;;;17.40;99.90;;;;;;4964831;28;20193;-62
2021/06/30 06:24:42;;;;;;;2.93;2.43;;;17.50;99.90;;;;;;4988461;28;20194;-62
2021/06/30 06:27:07;;;;;;;1.60;1.40;;;17.40;99.90;;;;;;4985726;28;20452;-59
2021/06/30 06:29:37;;;;;;;1.83;1.50;;;17.60;99.90;;;;;;4988464;28;20188;-61
2021/06/30 06:32:03;;;;;;;2.97;1.67;;;17.70;99.90;;;;;;4978912;28;20562;-62
2021/06/30 06:34:30;;;;;;;1.60;1.50;;;17.80;99.90;;;;;;4980897;28;20487;-62
2021/06/30 06:36:59;;;;;;;3.43;2.97;;;17.80;99.90;;;;;;4981601;28;20547;-62
2021/06/30 06:39:27;;;;;;;5.87;2.10;;;17.90;99.90;;;;;;4988051;28;20520;-62
2021/06/30 06:41:53;;;;;;;1.93;1.63;;;17.90;99.90;;;;;;4981745;28;20477;-62
2021/06/30 06:44:19;;;;;;;4.33;1.57;;;17.90;99.90;;;;;;4982683;28;20456;-61
2021/06/30 06:46:44;;;;;;;4.27;2.70;;;17.90;99.90;;;;;;4987043;28;20199;-61
2021/06/30 06:49:10;;;;;;;1.90;1.67;;;17.80;99.90;;;;;;4989535;28;20197;-62
2021/06/30 06:51:37;;;;;;;2.53;1.50;;;17.70;99.90;;;;;;4986606;28;20182;-61
2021/06/30 06:54:03;;;;;;;1.60;1.50;;;17.60;99.90;;;;;;4989463;28;20682;-64
2021/06/30 06:56:29;;;;;;;2.23;1.70;;;17.50;99.90;;;;;;4978648;28;21164;-62
2021/06/30 06:58:59;;;;;;;3.00;2.30;;;17.30;99.90;;;;;;4984290;28;20460;-62
2021/06/30 07:01:24;;;;;;;1.97;1.77;;;17.20;99.90;;;;;;4982843;28;20217;-62
2021/06/30 07:03:51;;;;;;;4.50;1.70;;;17.10;99.90;;;;;;4984704;28;20469;-63
2021/06/30 07:06:17;;;;;;;1.67;1.57;;;17.00;99.90;;;;;;4983572;28;20425;-62
2021/06/30 07:08:43;;;;;;;1.70;1.60;;;17.00;99.90;;;;;;4978922;28;20439;-59
2021/06/30 07:11:09;;;;;;;1.90;1.60;;;17.00;99.90;;;;;;4986304;28;20559;-61
2021/06/30 07:13:36;;;;;;;1.53;1.40;;;16.90;99.90;;;;;;4980734;28;20449;-61
2021/06/30 07:16:04;;;;;;;4.83;1.57;;;16.90;99.90;;;;;;4981042;28;20440;-62
2021/06/30 07:18:30;;;;;;;2.00;1.80;;;17.00;99.90;;;;;;4978982;28;20425;-63
2021/06/30 07:20:56;;;;;;;2.43;1.70;;;16.90;99.90;;;;;;4980420;28;20474;-62
2021/06/30 07:23:22;;;;;;;1.93;1.50;;;16.90;99.90;;;;;;4981851;28;20510;-62
2021/06/30 07:25:47;;;;;;;1.53;1.43;;;16.90;99.90;;;;;;4970305;28;20184;-62
2021/06/30 07:28:13;;;;;;;1.70;1.40;;;17.00;99.90;;;;;;4981640;28;20182;-62
2021/06/30 07:30:39;;;;;;;1.77;1.50;;;17.00;99.90;;;;;;4983301;28;20272;-61
2021/06/30 07:33:05;;;;;;;2.00;1.67;;;16.90;99.90;;;;;;4986776;28;20196;-63
2021/06/30 07:35:31;;;;;;;2.13;1.63;;;16.90;99.90;;;;;;4986606;28;20195;-63
2021/06/30 07:37:57;;;;;;;2.00;1.60;;;16.90;99.90;;;;;;4984581;28;20469;-64
2021/06/30 07:40:23;;;;;;;2.67;1.80;;;17.00;99.90;;;;;;4981177;28;20491;-62
2021/06/30 07:42:48;;;;;;;2.97;1.50;;;16.90;99.90;;;;;;4980226;28;20204;-62
2021/06/30 07:45:14;;;;;;;2.63;1.50;;;16.90;99.90;;;;;;4984933;28;20231;-60
2021/06/30 07:47:40;;;;;;;2.67;1.37;;;16.90;99.90;;;;;;4983979;28;20194;-61
2021/06/30 07:50:06;;;;;;;1.93;1.60;;;16.90;99.90;;;;;;4984410;28;20202;-63
2021/06/30 07:52:32;;;;;;;1.83;1.47;;;16.90;99.90;;;;;;4982761;28;20255;-62
2021/06/30 07:54:58;;;;;;;1.80;1.70;;;16.90;99.90;;;;;;4982813;28;20468;-64
2021/06/30 07:57:24;;;;;;;6.23;1.80;;;16.90;99.90;;;;;;4972406;28;20217;-62
2021/06/30 07:59:50;;;;;;;2.83;1.60;;;16.80;99.90;;;;;;4985366;28;20441;-64
2021/06/30 08:02:16;;;;;;;1.80;1.57;;;16.80;99.90;;;;;;4974800;28;20193;-62
2021/06/30 08:04:42;;;;;;;6.40;1.40;;;16.70;99.90;;;;;;4976096;28;20514;-61
2021/06/30 08:07:08;;;;;;;2.77;1.90;;;16.80;99.90;;;;;;4980964;28;20186;-61
2021/06/30 08:09:35;;;;;;;1.60;1.50;;;16.80;99.90;;;;;;4982951;28;20248;-63
2021/06/30 08:12:05;;;;;;;1.63;1.53;;;16.70;99.90;;;;;;4968563;28;20194;-61
2021/06/30 08:14:30;;;;;;;3.00;1.90;;;16.70;99.90;;;;;;4984212;28;20490;-60
2021/06/30 08:16:56;;;;;;;2.13;1.93;;;16.50;99.90;;;;;;4980930;28;20595;-62
2021/06/30 08:19:22;;;;;;;2.93;1.40;;;16.60;99.90;;;;;;4979123;28;22009;-61
2021/06/30 08:21:47;;;;;;;1.70;1.47;;;16.60;99.90;;;;;;4984356;28;20263;-61
2021/06/30 08:24:13;;;;;;;3.50;1.83;;;16.50;99.90;;;;;;4986393;28;20216;-63
2021/06/30 08:26:40;;;;;;;1.77;1.50;;;16.30;99.90;;;;;;4986219;28;20205;-61
2021/06/30 08:29:06;;;;;;;1.70;1.60;;;16.30;99.90;;;;;;4983062;28;20192;-64
2021/06/30 08:31:32;;;;;;;2.03;1.60;;;16.30;99.90;;;;;;4986034;28;20969;-60
2021/06/30 08:33:58;;;;;;;1.80;1.70;;;16.40;99.90;;;;;;4966352;28;20819;-62
2021/06/30 08:36:24;;;;;;;1.80;1.70;;;16.40;99.90;;;;;;5019930;23;20502;-60
2021/06/30 08:38:50;;;;;;;2.63;1.97;;;16.30;99.90;;;;;;5025270;28;20272;-61
2021/06/30 08:41:21;;;;;;;1.70;1.60;;;16.30;99.90;;;;;;5007796;28;20380;-59
2021/06/30 08:43:47;;;;;;;3.03;1.93;;;16.20;99.90;;;;;;5001983;28;20213;-61
2021/06/30 08:46:21;;;;;;;2.37;2.10;;;16.30;99.90;;;;;;5021758;28;20461;-62
2021/06/30 08:48:49;;;;;;;2.10;1.70;;;16.40;99.90;;;;;;5026679;28;20445;-61
2021/06/30 08:51:24;;;;;;;1.90;1.63;;;16.40;99.90;;;;;;5020030;28;20451;-62
2021/06/30 08:53:52;;;;;;;2.10;1.77;;;16.40;99.90;;;;;;5005758;28;20571;-62
2021/06/30 08:56:30;;;;;;;2.43;2.07;;;16.40;99.90;;;;;;5023797;28;20877;-61
2021/06/30 08:58:58;;;;;;;1.60;1.50;;;16.50;99.90;;;;;;5021753;28;20955;-62
2021/06/30 09:01:25;;;;;;;2.87;1.60;;;16.50;99.90;;;;;;5024181;28;20578;-61
2021/06/30 09:03:53;;;;;;;3.50;1.70;;;16.50;99.90;;;;;;5023400;28;20852;-60
2021/06/30 09:06:19;;;;;;;2.90;1.97;;;16.60;99.90;;;;;;5022185;28;20454;-62
2021/06/30 09:08:48;;;;;;;1.80;1.57;;;16.50;99.90;;;;;;5026390;28;20443;-62
2021/06/30 09:11:19;;;;;;;2.03;1.60;;;16.60;99.90;;;;;;5025438;28;20204;-59
2021/06/30 09:13:46;;;;;;;3.40;1.80;;;16.70;99.90;;;;;;5022782;28;20533;-60
2021/06/30 09:16:11;;;;;;;2.40;1.80;;;16.70;99.90;;;;;;5025952;28;20473;-60
2021/06/30 09:18:39;;;;;;;3.10;1.90;;;17.00;99.90;;;;;;5023081;28;20435;-61
2021/06/30 09:21:25;;;;;;;2.47;1.60;;;17.00;99.90;;;;;;5024030;28;20224;-62
2021/06/30 09:23:59;;;;;;;2.00;1.90;;;17.10;99.90;;;;;;5016978;28;20458;-61
2021/06/30 09:26:26;;;;;;;2.30;2.10;;;17.30;99.90;;;;;;5019295;28;20454;-60
2021/06/30 09:29:09;;;;;;;2.53;1.80;;;17.40;99.90;;;;;;5004994;28;20834;-61
2021/06/30 09:31:37;;;;;;;1.97;1.77;;;17.20;99.90;;;;;;5023241;28;20439;-61
2021/06/30 09:34:04;;;;;;;2.27;2.07;;;17.20;99.90;;;;;;5022760;28;21272;-61
2021/06/30 09:36:50;;;;;;;2.00;1.80;;;17.20;99.90;;;;;;5022180;28;20522;-61
2021/06/30 09:39:17;;;;;;;1.90;1.70;;;17.40;99.90;;;;;;5022177;28;20438;-61
2021/06/30 09:41:44;;;;;;;1.97;1.77;;;17.50;99.90;;;;;;5023371;28;20470;-62
2021/06/30 09:44:21;;;;;;;1.60;1.50;;;17.60;99.90;;;;;;5024995;28;20458;-61
2021/06/30 09:46:51;;;;;;;3.53;1.60;;;17.80;99.90;;;;;;5000572;28;20450;-61
2021/06/30 09:49:19;;;;;;;2.50;1.97;;;17.90;99.90;;;;;;5019686;28;20430;-61
2021/06/30 09:51:46;;;;;;;1.83;1.73;;;18.10;99.90;;;;;;5023070;28;20474;-61
2021/06/30 09:54:18;;;;;;;2.00;1.50;;;18.20;99.90;;;;;;5014084;28;20471;-62
2021/06/30 09:57:03;;;;;;;2.47;1.60;;;18.30;99.90;;;;;;5021372;28;20527;-61
2021/06/30 09:59:35;;;;;;;2.00;1.60;;;18.10;99.90;;;;;;5001842;28;20863;-62
2021/06/30 10:02:08;;;;;;;2.60;1.80;;;18.20;99.90;;;;;;5019919;28;20494;-63
2021/06/30 10:04:37;;;;;;;1.97;1.87;;;18.30;99.90;;;;;;5002128;28;20558;-63
2021/06/30 10:07:17;;;;;;;1.57;1.43;;;18.20;99.90;;;;;;5020640;28;20432;-62
2021/06/30 10:09:48;;;;;;;1.57;1.30;;;18.10;99.90;;;;;;5001836;28;20454;-61
2021/06/30 10:12:21;;;;;;;1.93;1.50;;;17.90;99.90;;;;;;5020535;28;21152;-62
2021/06/30 10:14:46;;;;;;;3.07;1.53;;;18.00;99.90;;;;;;5017384;28;20585;-62
2021/06/30 10:17:14;;;;;;;1.60;1.50;;;18.10;99.90;;;;;;5016790;28;20462;-62
2021/06/30 10:19:42;;;;;;;2.23;2.00;;;18.30;99.90;;;;;;5023013;28;20181;-63
2021/06/30 10:22:10;;;;;;;2.90;1.40;;;18.50;99.90;;;;;;5018248;28;21263;-62
2021/06/30 10:24:37;;;;;;;3.00;1.73;;;18.60;99.90;;;;;;5018367;28;20456;-63
2021/06/30 10:27:04;;;;;;;3.20;1.80;;;18.70;99.90;;;;;;4991048;28;20440;-63
2021/06/30 10:29:32;;;;;;;3.00;1.80;;;18.70;99.90;;;;;;5001949;28;21000;-61
2021/06/30 10:32:08;;;;;;;1.70;1.60;;;18.90;99.90;;;;;;5022404;28;20423;-61
2021/06/30 10:34:43;;;;;;;2.10;1.90;;;18.90;99.90;;;;;;5018791;28;20893;-62
2021/06/30 10:37:21;;;;;;;1.60;1.40;;;18.90;99.90;;;;;;5022060;28;20454;-63
2021/06/30 10:39:53;;;;;;;2.03;1.70;;;19.00;99.90;;;;;;5023015;28;20517;-61
2021/06/30 10:42:24;;;;;;;3.70;2.00;;;19.10;99.90;;;;;;5016693;28;20450;-63
2021/06/30 10:44:52;;;;;;;2.10;1.60;;;19.30;99.90;;;;;;5012379;28;20449;-62
2021/06/30 10:47:39;;;;;;;1.80;1.70;;;19.40;99.90;;;;;;4986669;28;21127;-58
2021/06/30 10:50:17;;;;;;;1.53;1.37;;;19.30;99.90;;;;;;5018750;28;20534;-62
2021/06/30 10:52:53;;;;;;;1.70;1.60;;;19.30;99.90;;;;;;5024637;28;20455;-61
2021/06/30 10:55:40;;;;;;;1.77;1.67;;;19.50;99.90;;;;;;5024727;28;20751;-59
2021/06/30 10:58:12;;;;;;;1.70;1.60;;;19.70;99.90;;;;;;5023902;28;21004;-59
2021/06/30 11:00:50;;;;;;;3.60;2.20;;;19.60;99.90;;;;;;5020404;28;20466;-62
2021/06/30 11:03:23;;;;;;;1.70;1.60;;;19.70;99.90;;;;;;5020228;28;20528;-62
2021/06/30 11:05:50;;;;;;;1.90;1.80;;;19.80;99.90;;;;;;5005725;28;20451;-61
2021/06/30 11:08:45;;;;;;;1.50;1.40;;;19.70;99.90;;;;;;5018083;28;20466;-64
2021/06/30 11:11:25;;;;;;;1.50;1.40;;;19.70;99.90;;;;;;5022344;28;20431;-62
2021/06/30 11:14:15;;;;;;;1.90;1.70;;;19.60;99.90;;;;;;5021635;28;20549;-60
2021/06/30 11:16:44;;;;;;;1.80;1.70;;;19.40;99.90;;;;;;5014386;28;21400;-61
2021/06/30 11:19:19;;;;;;;2.17;1.70;;;19.20;99.90;;;;;;5021548;28;20451;-61
2021/06/30 11:21:53;;;;;;;1.50;1.40;;;19.20;99.90;;;;;;5024714;28;20470;-61
2021/06/30 11:27:06;;;;;;;2.03;1.60;;;19.40;99.90;;;;;;5023554;28;20441;-61
2021/06/30 11:29:43;;;;;;;2.50;1.70;;;19.70;99.90;;;;;;5022057;28;20451;-62
2021/06/30 11:32:39;;;;;;;2.30;1.80;;;19.90;99.90;;;;;;5018160;28;20958;-61
2021/06/30 11:35:11;;;;;;;1.80;1.70;;;19.90;99.90;;;;;;5014824;28;20451;-62
2021/06/30 11:37:38;;;;;;;2.33;1.80;;;19.90;99.90;;;;;;5020768;28;20497;-62
2021/06/30 11:40:41;;;;;;;4.97;1.93;;;20.00;99.90;;;;;;5021204;28;20538;-61
2021/06/30 11:43:00;;;;;;;1.70;1.40;;;20.00;99.90;;;;;;5021317;28;24681;-63
2021/06/30 11:45:33;;;;;;;1.73;1.63;;;20.20;99.90;;;;;;5018309;28;20489;-63
2021/06/30 11:48:02;;;;;;;2.40;1.53;;;20.00;99.90;;;;;;5017897;28;20447;-62
2021/06/30 11:50:30;;;;;;;3.23;1.80;;;19.80;99.90;;;;;;5005631;28;21138;-62
2021/06/30 11:52:58;;;;;;;2.00;1.43;;;19.80;99.90;;;;;;5022731;28;20431;-61
2021/06/30 11:55:25;;;;;;;2.73;1.90;;;20.10;99.90;;;;;;5020756;28;20474;-62
2021/06/30 11:57:58;;;;;;;3.33;1.97;;;20.30;99.90;;;;;;5022360;28;20439;-61
2021/06/30 12:00:28;;;;;;;1.90;1.70;;;20.20;99.90;;;;;;5021225;28;20463;-61
2021/06/30 12:03:02;;;;;;;1.83;1.60;;;20.20;99.90;;;;;;5023620;28;20432;-62
2021/06/30 12:05:30;;;;;;;1.80;1.70;;;19.80;99.90;;;;;;5022096;28;20429;-61
2021/06/30 12:07:57;;;;;;;3.83;2.00;;;19.70;99.90;;;;;;5018378;28;20451;-62
2021/06/30 12:10:25;;;;;;;1.70;1.60;;;19.50;99.90;;;;;;5025423;28;20491;-60
2021/06/30 12:12:51;;;;;;;1.80;1.70;;;19.50;99.90;;;;;;5020795;28;20929;-62
2021/06/30 12:15:18;;;;;;;1.60;1.50;;;19.50;99.90;;;;;;5016777;28;20481;-63
2021/06/30 12:17:56;;;;;;;4.03;2.13;;;19.40;99.90;;;;;;5017764;28;20427;-62
2021/06/30 12:20:25;;;;;;;1.60;1.50;;;19.20;99.90;;;;;;5005861;28;21097;-62
2021/06/30 12:22:52;;;;;;;2.63;2.00;;;19.20;99.90;;;;;;5023179;28;20435;-61
2021/06/30 12:25:20;;;;;;;2.70;1.73;;;19.00;99.90;;;;;;5006238;28;20467;-61
2021/06/30 12:28:01;;;;;;;1.67;1.57;;;18.90;99.90;;;;;;5019685;28;20606;-57
2021/06/30 12:30:34;;;;;;;2.27;1.80;;;18.70;99.90;;;;;;5002127;28;20471;-62
2021/06/30 12:33:08;;;;;;;2.00;1.80;;;18.30;99.90;;;;;;5023063;28;20463;-61
2021/06/30 12:35:42;;;;;;;1.87;1.77;;;18.40;99.90;;;;;;5001713;28;20453;-63
2021/06/30 12:38:20;;;;;;;6.10;2.10;;;18.60;99.90;;;;;;5022189;28;20975;-61
2021/06/30 12:40:46;;;;;;;2.33;1.80;;;19.00;99.90;;;;;;5023513;28;20458;-61
2021/06/30 12:43:18;;;;;;;3.10;1.90;;;19.20;99.90;;;;;;5020384;28;20431;-62
2021/06/30 12:45:55;;;;;;;1.97;1.87;;;19.70;99.90;;;;;;5005515;28;20851;-60
2021/06/30 12:48:25;;;;;;;2.23;1.70;;;20.00;99.90;;;;;;5025681;28;20446;-63
2021/06/30 12:51:08;;;;;;;2.00;1.70;;;21.50;99.90;;;;;;5026639;28;20462;-62
2021/06/30 12:53:38;;;;;;;2.67;1.80;;;21.80;99.90;;;;;;5007659;28;20510;-62
2021/06/30 12:56:11;;;;;;;2.10;1.70;;;22.00;99.90;;;;;;5028139;28;20462;-60